Time;durP1;ratioP1;P1;durP2;ratioP2;P2;SDS_P1;SDS_P2;PMS_P1;PMS_P2;Temp;Humidity;BMP_temperature;BMP_pressure;BME280_temperature;BME280_humidity;BME280_pressure;Samples;Min_cycle;Max_cycle;Signal;HPM_P1;HPM_P2
2022/10/27 00:00:41;;;;;;;8.82;5.20;;;14.70;99.90;;;;;;5080109;28;20056;-84
2022/10/27 00:03:09;;;;;;;7.63;5.40;;;14.60;99.90;;;;;;5082771;28;20032;-85
2022/10/27 00:05:35;;;;;;;9.43;6.30;;;14.50;99.90;;;;;;5078020;28;20021;-85
2022/10/27 00:08:00;;;;;;;11.70;6.60;;;14.50;99.90;;;;;;5077559;28;20055;-84
2022/10/27 00:10:26;;;;;;;10.40;6.25;;;14.50;99.90;;;;;;5078209;28;20020;-85
2022/10/27 00:12:51;;;;;;;6.25;5.70;;;14.30;99.90;;;;;;5079266;28;20074;-85
2022/10/27 00:15:18;;;;;;;7.28;6.35;;;14.40;99.90;;;;;;5087706;28;20052;-86
2022/10/27 00:17:43;;;;;;;12.93;7.10;;;14.30;99.90;;;;;;5084705;28;20035;-85
2022/10/27 00:20:09;;;;;;;12.80;6.68;;;14.30;99.90;;;;;;5076709;28;20024;-86
2022/10/27 00:22:35;;;;;;;10.73;6.82;;;14.20;99.90;;;;;;5090490;28;20052;-86
2022/10/27 00:25:01;;;;;;;13.10;7.75;;;14.20;99.90;;;;;;5085959;28;20037;-85
2022/10/27 00:27:27;;;;;;;11.77;7.43;;;14.20;99.90;;;;;;5076263;28;20074;-84
2022/10/27 00:29:53;;;;;;;8.50;6.90;;;14.10;99.90;;;;;;5076411;28;20044;-85
2022/10/27 00:32:18;;;;;;;8.68;7.22;;;14.10;99.90;;;;;;5077760;28;20040;-85
2022/10/27 00:34:44;;;;;;;9.18;6.95;;;14.10;99.90;;;;;;5084886;28;20016;-84
2022/10/27 00:37:12;;;;;;;12.57;8.27;;;14.10;99.90;;;;;;5091525;28;20499;-85
2022/10/27 00:39:38;;;;;;;11.70;7.97;;;14.00;99.90;;;;;;5083567;28;20493;-86
2022/10/27 00:42:05;;;;;;;17.98;7.65;;;14.00;99.90;;;;;;5077438;28;20058;-84
2022/10/27 00:44:45;;;;;;;9.10;7.75;;;13.90;99.90;;;;;;5077243;28;20118;-85
2022/10/27 00:47:18;;;;;;;8.88;7.53;;;13.90;99.90;;;;;;5069317;28;20024;-84
2022/10/27 00:49:46;;;;;;;14.75;8.85;;;13.90;99.90;;;;;;5076442;28;20043;-84
2022/10/27 00:52:27;;;;;;;10.18;7.30;;;13.90;99.90;;;;;;5077719;28;20016;-85
2022/10/27 00:54:56;;;;;;;14.75;8.45;;;13.90;99.90;;;;;;5063117;28;20117;-86
2022/10/27 00:57:23;;;;;;;16.70;8.30;;;13.90;99.90;;;;;;5076819;28;20017;-85
2022/10/27 00:59:49;;;;;;;12.15;7.97;;;13.80;99.90;;;;;;5076965;28;20370;-85
2022/10/27 01:02:15;;;;;;;13.93;8.00;;;13.90;99.90;;;;;;5075888;28;20047;-84
2022/10/27 01:04:49;;;;;;;13.00;7.68;;;13.80;99.90;;;;;;5075316;28;20029;-85
2022/10/27 01:07:17;;;;;;;21.77;8.65;;;13.80;99.90;;;;;;5075631;28;20348;-85
2022/10/27 01:09:43;;;;;;;15.20;7.97;;;13.80;99.90;;;;;;5075512;28;20025;-85
2022/10/27 01:12:09;;;;;;;10.15;7.95;;;13.70;99.90;;;;;;5075745;28;20076;-86
2022/10/27 01:14:34;;;;;;;14.00;7.90;;;13.70;99.90;;;;;;5075999;28;20067;-84
2022/10/27 01:17:10;;;;;;;13.82;9.32;;;13.70;99.90;;;;;;5076496;28;20021;-86
2022/10/27 01:19:52;;;;;;;9.13;7.97;;;13.70;99.90;;;;;;5077067;28;20024;-85
2022/10/27 01:22:34;;;;;;;12.50;7.78;;;13.70;99.90;;;;;;5077877;28;20040;-85
2022/10/27 01:25:45;;;;;;;11.95;8.05;;;13.80;99.90;;;;;;5074904;28;20439;-84
2022/10/27 01:28:47;;;;;;;12.73;8.32;;;13.80;99.90;;;;;;5011516;28;20033;-85
2022/10/27 01:31:24;;;;;;;11.93;7.75;;;13.80;99.90;;;;;;5076789;28;20048;-85
2022/10/27 01:34:28;;;;;;;10.60;7.90;;;13.90;99.90;;;;;;5078494;28;20098;-85
2022/10/27 01:37:01;;;;;;;12.38;7.70;;;13.90;99.90;;;;;;5070655;28;20020;-85
2022/10/27 01:39:36;;;;;;;15.52;8.20;;;13.90;99.90;;;;;;5088053;28;20063;-85
2022/10/27 01:42:13;;;;;;;15.32;7.88;;;13.90;99.90;;;;;;5091421;28;20056;-85
2022/10/27 01:44:48;;;;;;;16.25;8.38;;;13.90;99.90;;;;;;5076932;28;20120;-85
2022/10/27 01:47:15;;;;;;;10.73;8.48;;;13.90;99.90;;;;;;5077438;28;20036;-85
2022/10/27 01:49:42;;;;;;;16.05;7.75;;;14.00;99.90;;;;;;5076635;28;20001;-84
2022/10/27 01:52:44;;;;;;;10.30;7.53;;;13.90;99.90;;;;;;5067722;28;20031;-85
2022/10/27 01:55:24;;;;;;;8.70;7.65;;;13.90;99.90;;;;;;5063619;28;20217;-85
2022/10/27 01:57:55;;;;;;;14.50;8.38;;;13.90;99.90;;;;;;5076167;28;20071;-84
2022/10/27 02:00:21;;;;;;;13.15;7.60;;;13.90;99.90;;;;;;5076004;28;20021;-85
2022/10/27 02:02:51;;;;;;;20.63;10.30;;;13.80;99.90;;;;;;5058087;28;20031;-86
2022/10/27 02:05:34;;;;;;;12.13;7.32;;;13.80;99.90;;;;;;5078231;28;20461;-84
2022/10/27 02:08:00;;;;;;;13.35;7.93;;;13.80;99.90;;;;;;5077261;28;20032;-85
2022/10/27 02:10:34;;;;;;;10.68;7.28;;;13.80;99.90;;;;;;5076669;28;20024;-84
2022/10/27 02:13:00;;;;;;;10.77;7.03;;;13.70;99.90;;;;;;5076887;28;20480;-85
2022/10/27 02:15:41;;;;;;;12.27;8.10;;;13.70;99.90;;;;;;5076144;28;20491;-84
2022/10/27 02:18:09;;;;;;;;;;;13.70;99.90;;;;;;5075766;28;20024;-85
2022/10/27 02:20:39;;;;;;;11.40;6.75;;;13.80;99.90;;;;;;5074997;28;19909;-86
2022/10/27 02:23:07;;;;;;;12.95;7.05;;;13.70;99.90;;;;;;5077006;28;20080;-85
2022/10/27 02:25:47;;;;;;;9.43;7.40;;;13.60;99.90;;;;;;5094956;28;20036;-84
2022/10/27 02:28:15;;;;;;;15.20;7.10;;;13.70;99.90;;;;;;5077982;28;20033;-84
2022/10/27 02:30:41;;;;;;;13.52;6.10;;;13.70;99.90;;;;;;5062673;28;20037;-84
2022/10/27 02:33:08;;;;;;;13.13;6.63;;;13.60;99.90;;;;;;5075420;28;20492;-87
2022/10/27 02:35:34;;;;;;;8.30;6.43;;;13.60;99.90;;;;;;5062863;28;20021;-85
2022/10/27 02:37:59;;;;;;;11.85;6.45;;;13.60;99.90;;;;;;5074902;28;20028;-86
2022/10/27 02:40:25;;;;;;;9.90;7.22;;;13.50;99.90;;;;;;5072070;28;20020;-83
2022/10/27 02:42:52;;;;;;;12.48;7.05;;;13.50;99.90;;;;;;5092309;28;20008;-85
2022/10/27 02:45:19;;;;;;;8.63;6.60;;;13.50;99.90;;;;;;5086967;28;20020;-86
2022/10/27 02:47:45;;;;;;;9.90;6.75;;;13.50;99.90;;;;;;5077402;28;20032;-85
2022/10/27 02:50:10;;;;;;;12.65;7.63;;;13.40;99.90;;;;;;5064260;28;20068;-84
2022/10/27 02:52:36;;;;;;;11.73;7.13;;;13.40;99.90;;;;;;5091084;28;20009;-84
2022/10/27 02:55:01;;;;;;;13.35;7.28;;;13.40;99.90;;;;;;5095976;28;20043;-85
2022/10/27 02:57:27;;;;;;;10.65;6.82;;;13.40;99.90;;;;;;5102339;28;20025;-85
2022/10/27 02:59:52;;;;;;;12.45;6.38;;;13.40;99.90;;;;;;5088612;28;20008;-85
2022/10/27 03:02:18;;;;;;;10.38;6.20;;;13.40;99.90;;;;;;5082092;28;20601;-86
2022/10/27 03:04:44;;;;;;;13.88;7.03;;;13.30;99.90;;;;;;5095444;28;20052;-85
2022/10/27 03:07:09;;;;;;;8.20;6.05;;;13.30;99.90;;;;;;5101247;28;20021;-86
2022/10/27 03:09:35;;;;;;;10.65;7.13;;;13.40;99.90;;;;;;5079423;28;20107;-85
2022/10/27 03:12:00;;;;;;;9.73;6.75;;;13.30;99.90;;;;;;5081207;28;20075;-84
2022/10/27 03:14:26;;;;;;;9.82;6.85;;;13.40;99.90;;;;;;5069523;28;20025;-84
2022/10/27 03:16:51;;;;;;;11.02;6.57;;;13.40;99.90;;;;;;5066959;28;20028;-85
2022/10/27 03:19:17;;;;;;;12.23;6.78;;;13.40;99.90;;;;;;5076474;28;20024;-86
2022/10/27 03:21:42;;;;;;;9.70;6.93;;;13.40;99.90;;;;;;5085904;28;20128;-86
2022/10/27 03:24:08;;;;;;;12.75;6.82;;;13.40;99.90;;;;;;5093902;28;20056;-85
2022/10/27 03:26:33;;;;;;;14.55;7.70;;;13.40;99.90;;;;;;5077192;28;20036;-85
2022/10/27 03:28:59;;;;;;;9.90;6.78;;;13.40;99.90;;;;;;5075618;28;20414;-85
2022/10/27 03:31:25;;;;;;;8.35;6.53;;;13.40;99.90;;;;;;5075254;28;20043;-84
2022/10/27 03:33:50;;;;;;;7.57;5.80;;;13.40;99.90;;;;;;5076195;28;20036;-85
2022/10/27 03:36:16;;;;;;;10.02;6.75;;;13.40;99.90;;;;;;5090377;28;20033;-85
2022/10/27 03:38:41;;;;;;;9.23;6.07;;;13.40;99.90;;;;;;5075639;28;20028;-85
2022/10/27 03:41:07;;;;;;;9.05;5.60;;;13.40;99.90;;;;;;5074896;28;20028;-85
2022/10/27 03:43:32;;;;;;;5.90;5.40;;;13.40;99.90;;;;;;5075349;28;20082;-85
2022/10/27 03:45:58;;;;;;;8.95;5.30;;;13.30;99.90;;;;;;5075358;28;20039;-85
2022/10/27 03:48:23;;;;;;;7.28;4.72;;;13.40;99.90;;;;;;5077775;28;20020;-84
2022/10/27 03:50:50;;;;;;;8.40;5.47;;;13.40;99.90;;;;;;5076670;28;20032;-82
2022/10/27 03:53:16;;;;;;;7.35;5.32;;;13.40;99.90;;;;;;5077251;28;20064;-81
2022/10/27 03:55:42;;;;;;;7.18;5.50;;;13.40;99.90;;;;;;5089432;28;20027;-81
2022/10/27 03:58:12;;;;;;;8.50;5.28;;;13.30;99.90;;;;;;5077814;28;20539;-82
2022/10/27 04:00:38;;;;;;;7.28;5.15;;;13.30;99.90;;;;;;5096662;28;20024;-82
2022/10/27 04:03:04;;;;;;;13.93;6.50;;;13.30;99.90;;;;;;5065225;28;20051;-81
2022/10/27 04:05:31;;;;;;;14.82;5.38;;;13.30;99.90;;;;;;5076143;28;20095;-82
2022/10/27 04:07:57;;;;;;;7.70;5.65;;;13.30;99.90;;;;;;5075708;28;20052;-81
2022/10/27 04:10:23;;;;;;;7.90;5.47;;;13.30;99.90;;;;;;5076292;28;20024;-81
2022/10/27 04:12:53;;;;;;;13.82;6.15;;;13.20;99.90;;;;;;5085221;28;20537;-82
2022/10/27 04:15:20;;;;;;;11.50;5.72;;;13.20;99.90;;;;;;5090090;28;20449;-81
2022/10/27 04:17:47;;;;;;;6.20;5.57;;;13.20;99.90;;;;;;5075605;28;20121;-84
2022/10/27 04:20:13;;;;;;;8.23;5.50;;;13.30;99.90;;;;;;5076034;28;20029;-82
2022/10/27 04:22:39;;;;;;;9.75;5.82;;;13.20;99.90;;;;;;5078362;28;20044;-82
2022/10/27 04:25:05;;;;;;;11.00;5.85;;;13.20;99.90;;;;;;5075632;28;20403;-82
2022/10/27 04:27:32;;;;;;;11.07;5.95;;;13.20;99.90;;;;;;5074366;28;20442;-82
2022/10/27 04:29:58;;;;;;;9.98;5.35;;;13.20;99.90;;;;;;5084217;28;20029;-82
2022/10/27 04:32:23;;;;;;;11.82;5.20;;;13.20;99.90;;;;;;5077070;28;20078;-80
2022/10/27 04:34:50;;;;;;;12.35;5.60;;;13.20;99.90;;;;;;5074845;28;20465;-82
2022/10/27 04:37:18;;;;;;;10.15;6.05;;;13.20;99.90;;;;;;5061366;28;20027;-83
2022/10/27 04:39:44;;;;;;;9.48;5.20;;;13.20;99.90;;;;;;5075393;28;20169;-82
2022/10/27 04:42:10;;;;;;;9.00;5.38;;;13.20;99.90;;;;;;5074549;28;20146;-83
2022/10/27 04:44:36;;;;;;;9.00;4.82;;;13.20;99.90;;;;;;5074995;28;20032;-81
2022/10/27 04:47:01;;;;;;;10.73;5.28;;;13.20;99.90;;;;;;5076631;28;20158;-82
2022/10/27 04:49:27;;;;;;;10.00;5.82;;;13.30;99.90;;;;;;5062089;28;20021;-81
2022/10/27 04:51:52;;;;;;;9.75;5.53;;;13.30;99.90;;;;;;5074631;28;20025;-82
2022/10/27 04:54:18;;;;;;;7.15;5.43;;;13.30;99.90;;;;;;5077271;28;20032;-83
2022/10/27 04:56:43;;;;;;;9.70;4.80;;;13.30;99.90;;;;;;5076009;28;20024;-83
2022/10/27 04:59:10;;;;;;;6.80;4.68;;;13.30;99.90;;;;;;5076432;28;20028;-81
2022/10/27 05:01:35;;;;;;;8.38;5.30;;;13.20;99.90;;;;;;5058438;28;20021;-81
2022/10/27 05:04:01;;;;;;;10.43;5.15;;;13.20;99.90;;;;;;5076081;28;20529;-81
2022/10/27 05:06:27;;;;;;;9.02;5.82;;;13.20;99.90;;;;;;5075622;28;20028;-81
2022/10/27 05:08:52;;;;;;;6.00;5.25;;;13.10;99.90;;;;;;5074874;28;20032;-80
2022/10/27 05:11:18;;;;;;;8.18;4.90;;;13.20;99.90;;;;;;5074793;28;20372;-82
2022/10/27 05:13:48;;;;;;;8.82;4.70;;;13.10;99.90;;;;;;5074975;28;20028;-82
2022/10/27 05:16:14;;;;;;;7.63;4.88;;;13.10;99.90;;;;;;5075026;28;20077;-82
2022/10/27 05:18:39;;;;;;;9.45;5.05;;;13.10;99.90;;;;;;5074956;28;20036;-81
2022/10/27 05:21:05;;;;;;;7.60;5.50;;;13.10;99.90;;;;;;5077473;28;20021;-81
2022/10/27 05:23:30;;;;;;;7.28;4.75;;;13.10;99.90;;;;;;5090280;28;20048;-83
2022/10/27 05:25:56;;;;;;;9.88;4.85;;;13.10;99.90;;;;;;5060049;28;20105;-80
2022/10/27 05:28:22;;;;;;;10.75;4.85;;;13.10;99.90;;;;;;5063508;28;20044;-79
2022/10/27 05:30:47;;;;;;;5.00;4.50;;;13.70;99.90;;;;;;5056127;28;20077;-80
2022/10/27 05:33:13;;;;;;;7.82;5.15;;;13.10;99.90;;;;;;5060490;28;20017;-80
2022/10/27 05:35:39;;;;;;;7.20;4.85;;;13.10;99.90;;;;;;5056997;28;20024;-80
2022/10/27 05:38:05;;;;;;;9.77;4.88;;;13.10;99.90;;;;;;5058395;28;20041;-79
2022/10/27 05:40:33;;;;;;;9.93;5.28;;;13.10;99.90;;;;;;5060695;28;20071;-79
2022/10/27 05:42:59;;;;;;;8.55;5.20;;;13.00;99.90;;;;;;5053725;28;20067;-80
2022/10/27 05:45:26;;;;;;;8.60;4.93;;;13.10;99.90;;;;;;5057505;28;20047;-80
2022/10/27 05:47:59;;;;;;;10.35;5.95;;;13.00;99.90;;;;;;5091335;28;20103;-79
2022/10/27 05:50:27;;;;;;;13.60;5.53;;;13.10;99.90;;;;;;5078886;28;20070;-79
2022/10/27 05:52:52;;;;;;;7.70;5.22;;;13.00;99.90;;;;;;5059279;28;20022;-80
2022/10/27 05:55:18;;;;;;;9.40;5.72;;;13.00;99.90;;;;;;5055609;28;20080;-81
2022/10/27 05:58:01;;;;;;;7.45;4.40;;;12.90;99.90;;;;;;5059456;28;20033;-80
2022/10/27 06:00:30;;;;;;;11.43;6.10;;;12.90;99.90;;;;;;5057395;28;20038;-81
2022/10/27 06:02:57;;;;;;;13.82;5.47;;;12.90;99.90;;;;;;5071619;28;20373;-79
2022/10/27 06:05:24;;;;;;;8.52;5.35;;;12.90;99.90;;;;;;5067252;28;20484;-79
2022/10/27 06:07:50;;;;;;;7.00;5.00;;;12.90;99.90;;;;;;5065869;28;20111;-79
2022/10/27 06:10:15;;;;;;;6.97;4.55;;;12.90;99.90;;;;;;5077102;28;20063;-79
2022/10/27 06:12:41;;;;;;;16.45;6.80;;;12.90;99.90;;;;;;5082129;28;20127;-80
2022/10/27 06:15:08;;;;;;;11.00;5.63;;;12.90;99.90;;;;;;5088337;28;20016;-81
2022/10/27 06:17:34;;;;;;;6.22;5.25;;;12.90;99.90;;;;;;5081549;28;20025;-80
2022/10/27 06:19:59;;;;;;;8.60;4.95;;;13.00;99.90;;;;;;5084786;28;20020;-79
2022/10/27 06:22:25;;;;;;;14.60;4.72;;;13.00;99.90;;;;;;5083428;28;20053;-80
2022/10/27 06:24:51;;;;;;;17.90;5.07;;;13.00;99.90;;;;;;5084356;28;20016;-80
2022/10/27 06:27:16;;;;;;;24.38;5.80;;;13.60;99.90;;;;;;5088721;28;20107;-79
2022/10/27 06:29:42;;;;;;;11.80;4.55;;;13.10;99.90;;;;;;5079721;28;20033;-80
2022/10/27 06:32:07;;;;;;;6.97;4.32;;;13.00;99.90;;;;;;5080636;28;20020;-81
2022/10/27 06:34:33;;;;;;;11.75;4.60;;;13.00;99.90;;;;;;5080385;28;20036;-80
2022/10/27 06:36:58;;;;;;;7.75;3.97;;;13.00;99.90;;;;;;5086425;28;20045;-79
2022/10/27 06:39:24;;;;;;;14.13;4.82;;;13.00;99.90;;;;;;5091606;28;20028;-80
2022/10/27 06:41:49;;;;;;;15.00;4.28;;;13.00;99.90;;;;;;5069115;28;20021;-80
2022/10/27 06:44:15;;;;;;;10.85;4.15;;;13.00;99.90;;;;;;5108487;28;20036;-79
2022/10/27 06:46:40;;;;;;;8.27;4.32;;;13.10;99.90;;;;;;5091597;28;20029;-80
2022/10/27 06:49:06;;;;;;;11.68;3.55;;;13.00;99.90;;;;;;5083835;28;20024;-79
2022/10/27 06:51:32;;;;;;;7.38;3.38;;;13.00;99.90;;;;;;5087983;28;20043;-82
2022/10/27 06:53:57;;;;;;;6.43;3.80;;;13.10;99.90;;;;;;5089468;28;20028;-81
2022/10/27 06:56:23;;;;;;;8.02;3.42;;;13.10;99.90;;;;;;5078234;28;20032;-80
2022/10/27 06:58:49;;;;;;;13.85;3.60;;;13.00;99.90;;;;;;5078699;28;20025;-82
2022/10/27 07:01:15;;;;;;;5.15;2.88;;;13.00;99.90;;;;;;5080816;28;20036;-79
2022/10/27 07:03:41;;;;;;;6.55;2.75;;;13.10;99.90;;;;;;5086466;28;20546;-80
2022/10/27 07:06:06;;;;;;;7.05;2.95;;;13.10;99.90;;;;;;5090784;28;20084;-80
2022/10/27 07:08:32;;;;;;;9.45;3.38;;;13.10;99.90;;;;;;5101845;28;20028;-78
2022/10/27 07:10:58;;;;;;;6.32;2.50;;;13.20;99.90;;;;;;5105440;28;20004;-78
2022/10/27 07:13:23;;;;;;;4.00;2.63;;;13.20;99.90;;;;;;5104605;28;20115;-81
2022/10/27 07:15:55;;;;;;;5.63;2.83;;;13.20;99.90;;;;;;5094613;28;20425;-81
2022/10/27 07:18:20;;;;;;;7.05;2.67;;;13.30;99.90;;;;;;5095764;28;20028;-79
2022/10/27 07:20:48;;;;;;;4.93;2.83;;;13.40;99.90;;;;;;5093722;28;20069;-80
2022/10/27 07:23:14;;;;;;;2.70;2.00;;;13.40;99.90;;;;;;5097321;28;20449;-80
2022/10/27 07:25:41;;;;;;;10.48;2.38;;;13.50;99.90;;;;;;5095846;28;20092;-80
2022/10/27 07:28:07;;;;;;;11.55;2.80;;;13.50;99.90;;;;;;5085816;28;20380;-79
2022/10/27 07:30:38;;;;;;;4.18;2.03;;;13.50;99.90;;;;;;5094854;28;20027;-80
2022/10/27 07:33:04;;;;;;;2.83;2.10;;;13.60;99.90;;;;;;5090382;28;20408;-79
2022/10/27 07:35:31;;;;;;;5.80;2.15;;;13.60;99.90;;;;;;5078102;28;20024;-80
2022/10/27 07:37:56;;;;;;;2.92;2.15;;;13.60;99.90;;;;;;5074958;28;20032;-81
2022/10/27 07:40:23;;;;;;;3.17;2.47;;;13.70;99.90;;;;;;5079877;28;20032;-80
2022/10/27 07:42:51;;;;;;;5.05;2.17;;;13.70;99.90;;;;;;5080681;28;20476;-78
2022/10/27 07:45:19;;;;;;;5.82;2.20;;;13.80;99.90;;;;;;5078190;28;20040;-79
2022/10/27 07:47:46;;;;;;;4.50;1.92;;;13.90;99.90;;;;;;5093267;28;20029;-77
2022/10/27 07:50:12;;;;;;;4.60;2.55;;;13.90;99.90;;;;;;5088846;28;20051;-77
2022/10/27 07:52:51;;;;;;;4.55;2.17;;;14.00;99.90;;;;;;5086120;28;20120;-79
2022/10/27 07:55:19;;;;;;;4.50;2.22;;;14.10;99.90;;;;;;5088338;28;20024;-78
2022/10/27 07:57:46;;;;;;;5.53;1.83;;;14.20;99.90;;;;;;5090444;28;20103;-78
2022/10/27 08:00:19;;;;;;;8.05;2.80;;;14.20;99.90;;;;;;5086469;28;20047;-78
2022/10/27 08:02:44;;;;;;;4.32;1.95;;;14.40;99.90;;;;;;5086098;28;20055;-79
2022/10/27 08:05:10;;;;;;;5.35;2.38;;;14.40;99.90;;;;;;5086383;28;20048;-78
2022/10/27 08:07:37;;;;;;;9.55;2.63;;;14.40;99.90;;;;;;5083564;28;20026;-78
2022/10/27 08:10:04;;;;;;;6.00;2.22;;;14.50;99.90;;;;;;5089145;28;20113;-79
2022/10/27 08:12:30;;;;;;;5.05;2.40;;;14.60;99.90;;;;;;5083247;28;20063;-79
2022/10/27 08:14:56;;;;;;;4.25;2.08;;;14.70;99.90;;;;;;5111510;28;20028;-79
2022/10/27 08:17:22;;;;;;;2.95;1.95;;;14.70;99.90;;;;;;5084549;28;20381;-77
2022/10/27 08:19:47;;;;;;;3.40;1.77;;;14.80;99.90;;;;;;5086649;28;20028;-78
2022/10/27 08:22:13;;;;;;;5.93;1.90;;;14.90;99.90;;;;;;5094952;28;20028;-79
2022/10/27 08:24:40;;;;;;;6.97;2.10;;;15.00;99.90;;;;;;5071657;28;20029;-79
2022/10/27 08:27:05;;;;;;;6.07;2.40;;;15.10;99.90;;;;;;5086479;28;20025;-78
2022/10/27 08:29:31;;;;;;;4.88;2.55;;;15.10;99.90;;;;;;5070705;28;20013;-79
2022/10/27 08:31:56;;;;;;;6.63;2.22;;;15.20;99.90;;;;;;5073697;28;20111;-80
2022/10/27 08:34:23;;;;;;;4.18;2.25;;;15.30;99.90;;;;;;5087652;28;20028;-78
2022/10/27 08:36:49;;;;;;;4.93;2.00;;;15.40;99.90;;;;;;5088551;28;20032;-79
2022/10/27 08:39:14;;;;;;;7.53;2.40;;;15.50;99.90;;;;;;5079510;28;20047;-78
2022/10/27 08:42:06;;;;;;;4.40;1.83;;;15.60;99.90;;;;;;5076202;28;20025;-77
2022/10/27 08:44:49;;;;;;;4.72;2.25;;;15.70;99.90;;;;;;5077909;28;20123;-79
2022/10/27 08:47:20;;;;;;;5.53;2.22;;;15.80;99.90;;;;;;5086524;28;20029;-77
2022/10/27 08:49:55;;;;;;;6.45;2.03;;;15.90;99.90;;;;;;5076456;28;20423;-77
2022/10/27 08:52:33;;;;;;;5.65;1.88;;;15.90;99.90;;;;;;5083478;28;20031;-81
2022/10/27 08:55:14;;;;;;;4.80;2.03;;;15.90;99.90;;;;;;5065888;28;20042;-77
2022/10/27 08:57:43;;;;;;;;;;;16.00;99.90;;;;;;5084864;28;20025;-79
2022/10/27 09:00:12;;;;;;;3.92;1.92;;;16.00;99.90;;;;;;5065789;28;19912;-78
2022/10/27 09:02:49;;;;;;;3.92;1.85;;;15.90;99.90;;;;;;5085881;28;20039;-78
2022/10/27 09:05:36;;;;;;;5.32;1.90;;;15.90;99.90;;;;;;5078666;28;20047;-77
2022/10/27 09:08:30;;;;;;;4.85;1.83;;;16.00;99.90;;;;;;5067149;28;20131;-78
2022/10/27 09:11:15;;;;;;;5.75;1.90;;;16.00;99.90;;;;;;5071305;28;20028;-81
2022/10/27 09:13:47;;;;;;;3.60;1.92;;;16.00;99.90;;;;;;5073193;28;20498;-81
2022/10/27 09:16:19;;;;;;;3.55;1.90;;;16.00;99.90;;;;;;5069657;28;20052;-81
2022/10/27 09:18:54;;;;;;;2.83;1.50;;;16.00;99.90;;;;;;5073055;28;20028;-79
2022/10/27 09:21:21;;;;;;;3.45;1.52;;;16.00;99.90;;;;;;5070591;28;20064;-77
2022/10/27 09:23:52;;;;;;;5.60;1.90;;;16.00;99.90;;;;;;5078429;28;20520;-79
2022/10/27 09:26:21;;;;;;;1.90;1.55;;;16.00;99.90;;;;;;5074210;28;20047;-77
2022/10/27 09:28:51;;;;;;;3.08;1.70;;;16.00;99.90;;;;;;5072217;28;20036;-78
2022/10/27 09:31:37;;;;;;;5.60;2.28;;;16.10;99.90;;;;;;5070099;28;20509;-78
2022/10/27 09:34:21;;;;;;;2.33;1.52;;;16.10;99.90;;;;;;5063443;28;20039;-76
2022/10/27 09:36:47;;;;;;;5.05;1.60;;;16.10;99.90;;;;;;5075509;28;20104;-78
2022/10/27 09:39:13;;;;;;;4.88;1.83;;;16.20;99.90;;;;;;5080727;28;20048;-77
2022/10/27 09:41:40;;;;;;;4.07;2.05;;;16.30;99.90;;;;;;5085018;28;20029;-78
2022/10/27 09:44:20;;;;;;;2.40;1.80;;;16.30;99.90;;;;;;5080258;28;20033;-79
2022/10/27 09:46:53;;;;;;;2.95;1.63;;;16.40;99.90;;;;;;5076295;28;20025;-78
2022/10/27 09:49:36;;;;;;;5.22;1.67;;;16.50;99.90;;;;;;5069676;28;20060;-78
2022/10/27 09:52:14;;;;;;;4.22;1.70;;;16.70;99.90;;;;;;5076946;28;20031;-78
2022/10/27 09:54:48;;;;;;;2.95;1.60;;;16.80;99.90;;;;;;5079608;28;20032;-79
2022/10/27 09:57:18;;;;;;;8.57;2.03;;;16.90;99.90;;;;;;5078116;28;20016;-78
2022/10/27 10:00:03;;;;;;;6.43;1.83;;;17.00;99.90;;;;;;5080461;28;20043;-77
2022/10/27 10:02:35;;;;;;;2.25;1.35;;;17.10;99.90;;;;;;5080132;28;20033;-78
2022/10/27 10:05:18;;;;;;;4.55;2.33;;;17.10;99.90;;;;;;5077649;28;20523;-78
2022/10/27 10:07:45;;;;;;;4.07;1.60;;;17.10;99.90;;;;;;5073564;28;20059;-79
2022/10/27 10:10:28;;;;;;;7.80;1.80;;;17.10;99.90;;;;;;5082316;28;20036;-77
2022/10/27 10:13:13;;;;;;;1.98;1.35;;;17.10;99.90;;;;;;5081097;28;20469;-78
2022/10/27 10:15:46;;;;;;;6.55;1.83;;;17.20;99.90;;;;;;5079154;28;20026;-78
2022/10/27 10:18:24;;;;;;;6.10;1.52;;;17.20;99.90;;;;;;5068847;28;20477;-79
2022/10/27 10:20:59;;;;;;;7.10;1.77;;;17.20;99.90;;;;;;5069363;28;20048;-77
2022/10/27 10:23:28;;;;;;;6.85;1.83;;;17.30;99.90;;;;;;5073183;28;20040;-76
2022/10/27 10:26:01;;;;;;;3.67;1.88;;;17.30;99.90;;;;;;5073154;28;20999;-78
2022/10/27 10:28:32;;;;;;;5.93;1.70;;;17.30;99.90;;;;;;5080497;28;20044;-77
2022/10/27 10:31:01;;;;;;;2.53;1.55;;;17.30;99.90;;;;;;5073374;28;20049;-77
2022/10/27 10:33:34;;;;;;;5.97;1.80;;;17.40;99.90;;;;;;5086772;28;20024;-78
2022/10/27 10:36:14;;;;;;;3.85;1.85;;;17.40;99.90;;;;;;5078939;28;20353;-78
2022/10/27 10:38:41;;;;;;;2.35;1.42;;;17.50;99.90;;;;;;5082681;28;20104;-78
2022/10/27 10:41:12;;;;;;;4.95;1.80;;;17.50;99.90;;;;;;5080106;28;20036;-77
2022/10/27 10:43:39;;;;;;;5.65;1.88;;;17.60;99.90;;;;;;5081162;28;20032;-79
2022/10/27 10:46:15;;;;;;;5.75;2.28;;;17.60;99.90;;;;;;5081715;28;20082;-78
2022/10/27 10:49:21;;;;;;;2.92;1.88;;;17.60;99.90;;;;;;5068839;28;20108;-78
2022/10/27 10:52:24;;;;;;;8.63;2.05;;;17.70;99.90;;;;;;5074203;28;20043;-77
2022/10/27 10:54:49;;;;;;;5.47;1.73;;;17.70;99.90;;;;;;5088609;28;20028;-79
2022/10/27 10:57:33;;;;;;;3.70;1.85;;;17.70;99.90;;;;;;5077143;28;20028;-78
2022/10/27 10:59:59;;;;;;;8.52;1.90;;;17.70;99.90;;;;;;5080171;28;20020;-79
2022/10/27 11:02:30;;;;;;;5.15;1.63;;;17.70;99.90;;;;;;5093298;28;20067;-78
2022/10/27 11:05:10;;;;;;;5.55;1.60;;;17.80;99.90;;;;;;5096060;28;20055;-79
2022/10/27 11:07:36;;;;;;;7.15;2.08;;;17.80;99.90;;;;;;5094932;28;20024;-78
2022/10/27 11:10:29;;;;;;;5.18;2.10;;;17.80;99.90;;;;;;5095224;28;20028;-80
2022/10/27 11:13:24;;;;;;;8.90;2.25;;;17.80;99.90;;;;;;5072213;28;20078;-78
2022/10/27 11:16:02;;;;;;;2.17;1.50;;;17.90;99.90;;;;;;5079372;28;20037;-80
2022/10/27 11:18:41;;;;;;;6.93;2.15;;;17.90;99.90;;;;;;5092205;28;20020;-79
2022/10/27 11:21:31;;;;;;;6.20;1.60;;;18.00;99.90;;;;;;5080564;28;20059;-78
2022/10/27 11:24:08;;;;;;;3.30;1.70;;;18.10;99.90;;;;;;5072594;28;20377;-77
2022/10/27 11:26:37;;;;;;;6.80;2.22;;;18.20;99.90;;;;;;5078739;28;20043;-78
2022/10/27 11:29:25;;;;;;;6.40;1.65;;;18.30;99.90;;;;;;5095408;28;20088;-80
2022/10/27 11:32:15;;;;;;;4.32;1.50;;;18.30;99.90;;;;;;5112100;28;20009;-79
2022/10/27 11:35:01;;;;;;;7.05;1.90;;;18.40;99.90;;;;;;5063338;28;20029;-78
2022/10/27 11:37:33;;;;;;;6.70;2.03;;;18.40;99.90;;;;;;5075982;28;20029;-80
2022/10/27 11:40:28;;;;;;;4.10;1.90;;;18.40;99.90;;;;;;5076571;28;20472;-79
2022/10/27 11:43:02;;;;;;;6.10;1.60;;;18.20;99.90;;;;;;5076442;28;20032;-79
2022/10/27 11:45:43;;;;;;;3.67;1.83;;;18.20;99.90;;;;;;5078352;28;20494;-80
2022/10/27 11:48:36;;;;;;;5.03;2.03;;;18.20;99.90;;;;;;5079244;28;20122;-80
2022/10/27 11:51:12;;;;;;;4.20;1.90;;;18.10;99.90;;;;;;5063712;28;20082;-78
2022/10/27 11:53:37;;;;;;;7.13;2.15;;;18.10;99.90;;;;;;5069594;28;20100;-79
2022/10/27 11:56:15;;;;;;;9.35;2.42;;;18.10;99.90;;;;;;5074871;28;20025;-80
2022/10/27 11:59:10;;;;;;;4.25;1.50;;;18.10;99.90;;;;;;5090692;28;20012;-79
2022/10/27 12:02:11;;;;;;;4.53;2.38;;;18.10;99.90;;;;;;5108540;28;20000;-78
2022/10/27 12:04:49;;;;;;;9.98;2.00;;;18.20;99.90;;;;;;5096904;28;20067;-80
2022/10/27 12:07:27;;;;;;;8.38;2.38;;;18.30;99.90;;;;;;5104631;28;20037;-80
2022/10/27 12:10:24;;;;;;;7.30;2.00;;;18.30;99.90;;;;;;5110925;28;20028;-79
2022/10/27 12:13:05;;;;;;;11.80;2.38;;;18.50;99.90;;;;;;5093315;28;20057;-80
2022/10/27 12:15:43;;;;;;;5.38;2.33;;;18.50;99.90;;;;;;5087337;28;20039;-79
2022/10/27 12:18:34;;;;;;;5.65;2.05;;;18.60;99.90;;;;;;5100115;28;20376;-79
2022/10/27 12:21:21;;;;;;;5.75;2.20;;;18.70;99.90;;;;;;5089370;28;20020;-80
2022/10/27 12:24:06;;;;;;;4.07;2.05;;;18.70;99.90;;;;;;5084675;28;20047;-81
2022/10/27 12:26:44;;;;;;;6.10;2.17;;;18.70;99.90;;;;;;5090831;28;20028;-80
2022/10/27 12:29:12;;;;;;;3.72;2.00;;;18.80;99.90;;;;;;5079190;28;20029;-79
2022/10/27 12:32:16;;;;;;;5.05;2.15;;;18.80;99.90;;;;;;5058374;28;20120;-80
2022/10/27 12:34:49;;;;;;;4.82;2.03;;;18.80;99.90;;;;;;5085808;28;20432;-79
2022/10/27 12:37:17;;;;;;;4.22;1.90;;;18.90;99.90;;;;;;5083484;28;20421;-80
2022/10/27 12:40:04;;;;;;;5.22;2.45;;;18.90;99.90;;;;;;5088434;28;20017;-81
2022/10/27 12:42:43;;;;;;;4.53;2.42;;;18.90;99.90;;;;;;5092160;28;20023;-79
2022/10/27 12:45:36;;;;;;;4.53;1.80;;;18.80;99.90;;;;;;5091362;28;20118;-79
2022/10/27 12:48:22;;;;;;;3.33;2.30;;;18.90;99.90;;;;;;5084025;28;20095;-78
2022/10/27 12:51:11;;;;;;;6.55;2.03;;;18.90;99.90;;;;;;5076738;28;20372;-77
2022/10/27 12:53:55;;;;;;;5.85;1.90;;;19.00;99.90;;;;;;5076809;28;21152;-79
2022/10/27 12:56:40;;;;;;;3.72;2.08;;;19.00;99.90;;;;;;5076659;28;20488;-79
2022/10/27 12:59:32;;;;;;;7.50;2.17;;;19.00;99.90;;;;;;5070144;28;20024;-80
2022/10/27 13:02:01;;;;;;;4.10;2.47;;;19.00;99.90;;;;;;5072557;28;20039;-79
2022/10/27 13:04:45;;;;;;;7.47;2.30;;;19.10;99.90;;;;;;5074853;28;20032;-79